createdAt,value
2022-09-17T00:02:05.908Z,53.99
2022-09-17T00:04:34.353Z,53.39
2022-09-17T00:07:05.131Z,53.38
2022-09-17T00:09:33.396Z,53.16
2022-09-17T00:12:03.350Z,52.79
2022-09-17T00:14:32.425Z,52.62
2022-09-17T00:17:02.931Z,52.58
2022-09-17T00:19:32.139Z,52.94
2022-09-17T00:22:02.350Z,56.31
2022-09-17T00:24:32.435Z,59.04
2022-09-17T00:27:03.186Z,59.57
2022-09-17T00:29:33.350Z,59.39
2022-09-17T00:32:04.809Z,59.27
2022-09-17T00:34:38.343Z,58.68
2022-09-17T00:37:12.010Z,58.75
2022-09-17T00:39:43.497Z,58.32
2022-09-17T00:42:16.596Z,58.56
2022-09-17T00:44:51.574Z,58.88
2022-09-17T00:47:28.124Z,58.99
2022-09-17T00:50:00.523Z,59.75
2022-09-17T00:52:33.510Z,59.54
2022-09-17T00:55:11.069Z,59.27
2022-09-17T00:57:41.713Z,58.73
2022-09-17T01:00:11.163Z,58.72
2022-09-17T01:02:39.446Z,58.68
2022-09-17T01:05:09.421Z,58.89
2022-09-17T01:07:54.291Z,58.85
2022-09-17T01:10:43.934Z,58.88
2022-09-17T01:13:25.242Z,59.00
2022-09-17T01:16:10.416Z,58.85
2022-09-17T01:18:48.779Z,59.08
2022-09-17T01:21:43.757Z,58.89
2022-09-17T01:24:40.437Z,58.31
2022-09-17T01:27:43.678Z,58.38
2022-09-17T01:30:36.008Z,58.57
2022-09-17T01:33:12.911Z,58.43
2022-09-17T01:35:50.493Z,58.68
2022-09-17T01:38:28.140Z,59.08
2022-09-17T01:41:07.036Z,59.00
2022-09-17T01:43:39.308Z,58.48
2022-09-17T01:46:15.171Z,58.78
2022-09-17T01:48:50.964Z,58.75
2022-09-17T01:51:24.653Z,58.84
2022-09-17T01:53:57.933Z,58.45
2022-09-17T01:56:32.543Z,58.58
2022-09-17T01:59:07.461Z,58.49
2022-09-17T02:01:38.596Z,57.92
2022-09-17T02:04:12.485Z,57.72
2022-09-17T02:06:46.926Z,56.72
2022-09-17T02:09:19.477Z,55.29
2022-09-17T02:11:58.898Z,53.73
2022-09-17T02:14:31.065Z,53.40
2022-09-17T02:17:06.856Z,52.83
2022-09-17T02:19:39.137Z,52.31
2022-09-17T02:22:17.179Z,51.99
2022-09-17T02:24:52.077Z,52.08
2022-09-17T02:27:26.468Z,52.29
2022-09-17T02:29:54.447Z,52.41
2022-09-17T02:32:22.409Z,53.03
2022-09-17T02:34:52.107Z,52.99
2022-09-17T02:37:20.289Z,53.86
2022-09-17T02:39:48.418Z,54.00
2022-09-17T02:42:23.653Z,54.13
2022-09-17T02:45:02.023Z,53.99
2022-09-17T02:47:44.226Z,53.59
2022-09-17T02:50:35.937Z,53.93
2022-09-17T02:53:20.637Z,53.88
2022-09-17T02:55:54.888Z,54.60
2022-09-17T02:58:28.049Z,54.83
2022-09-17T03:00:58.646Z,54.88
2022-09-17T03:03:31.741Z,54.86
2022-09-17T03:06:01.606Z,54.91
2022-09-17T03:08:31.269Z,54.51
2022-09-17T03:10:59.828Z,54.70
2022-09-17T03:13:27.725Z,53.86
2022-09-17T03:15:55.715Z,53.69
2022-09-17T03:18:23.864Z,52.68
2022-09-17T03:20:51.749Z,52.71
2022-09-17T03:23:21.013Z,52.29
2022-09-17T03:25:49.576Z,51.96
2022-09-17T03:28:17.852Z,51.73
2022-09-17T03:30:46.662Z,51.37
2022-09-17T03:33:15.161Z,51.80
2022-09-17T03:35:43.980Z,52.77
2022-09-17T03:38:11.913Z,52.50
2022-09-17T03:40:41.869Z,52.85
2022-09-17T03:43:10.493Z,53.28
2022-09-17T03:45:38.331Z,54.18
2022-09-17T03:48:06.265Z,54.06
2022-09-17T03:50:36.024Z,54.17
2022-09-17T03:53:09.216Z,54.01
2022-09-17T03:55:42.798Z,54.23
2022-09-17T03:58:14.138Z,54.42
2022-09-17T04:00:44.688Z,54.60
2022-09-17T04:03:15.218Z,54.44
2022-09-17T04:05:45.816Z,54.48
2022-09-17T04:08:14.573Z,54.22
2022-09-17T04:10:47.010Z,54.06
2022-09-17T04:13:19.341Z,54.03
2022-09-17T04:15:48.927Z,53.68
2022-09-17T04:18:17.452Z,52.31
2022-09-17T04:20:47.735Z,51.87
2022-09-17T04:23:18.155Z,51.73
2022-09-17T04:25:48.179Z,51.89
2022-09-17T04:28:17.958Z,51.39
2022-09-17T04:30:49.815Z,51.26
2022-09-17T04:33:19.377Z,51.23
2022-09-17T04:35:49.750Z,50.75
2022-09-17T04:38:22.351Z,51.22
2022-09-17T04:40:51.784Z,51.03
2022-09-17T04:43:20.101Z,51.21
2022-09-17T04:45:50.057Z,50.70
2022-09-17T04:48:19.066Z,50.10
2022-09-17T04:50:48.585Z,50.03
2022-09-17T04:53:16.790Z,49.74
2022-09-17T04:55:44.742Z,49.50
2022-09-17T04:58:16.640Z,49.60
2022-09-17T05:00:46.227Z,49.60
2022-09-17T05:03:16.652Z,49.50
2022-09-17T05:05:47.120Z,49.79
2022-09-17T05:08:16.825Z,49.46
2022-09-17T05:10:45.573Z,48.71
2022-09-17T05:13:16.083Z,48.86
2022-09-17T05:15:45.682Z,48.64
2022-09-17T05:18:15.269Z,48.66
2022-09-17T05:20:46.139Z,48.60
2022-09-17T05:23:14.554Z,48.21
2022-09-17T05:25:42.567Z,48.24
2022-09-17T05:28:12.987Z,49.68
2022-09-17T05:30:45.736Z,50.50
2022-09-17T05:33:16.481Z,51.42
2022-09-17T05:35:45.360Z,51.94
2022-09-17T05:38:16.127Z,52.80
2022-09-17T05:40:45.375Z,52.88
2022-09-17T05:43:13.702Z,53.15
2022-09-17T05:45:48.150Z,53.22
2022-09-17T05:48:16.808Z,53.10
2022-09-17T05:50:44.785Z,53.79
2022-09-17T05:53:14.878Z,53.60
2022-09-17T05:55:46.269Z,55.80
2022-09-17T05:58:18.050Z,56.27
2022-09-17T06:00:51.557Z,57.84
2022-09-17T06:03:24.674Z,58.84
2022-09-17T06:05:55.469Z,59.08
2022-09-17T06:08:25.661Z,60.67
2022-09-17T06:11:00.223Z,60.34
2022-09-17T06:13:33.491Z,59.54
2022-09-17T06:16:04.964Z,59.41
2022-09-17T06:18:35.030Z,60.01
2022-09-17T06:21:05.998Z,60.73
2022-09-17T06:23:38.202Z,60.50
2022-09-17T06:26:07.754Z,61.39
2022-09-17T06:28:41.278Z,62.14
2022-09-17T06:31:15.128Z,62.46
2022-09-17T06:33:47.183Z,63.23
2022-09-17T06:36:15.914Z,63.12
2022-09-17T06:38:45.550Z,63.41
2022-09-17T06:41:17.867Z,62.69
2022-09-17T06:43:47.713Z,62.35
2022-09-17T06:46:19.509Z,61.24
2022-09-17T06:48:47.853Z,60.68
2022-09-17T06:51:16.154Z,60.11
2022-09-17T06:53:44.190Z,60.00
2022-09-17T06:56:12.339Z,60.29
2022-09-17T06:58:41.736Z,60.51
2022-09-17T07:01:12.127Z,61.13
2022-09-17T07:03:43.970Z,60.36
2022-09-17T07:06:12.730Z,59.93
2022-09-17T07:08:41.645Z,59.86
2022-09-17T07:11:09.744Z,60.01
2022-09-17T07:13:37.770Z,59.77
2022-09-17T07:16:08.004Z,59.12
2022-09-17T07:18:36.046Z,58.96
2022-09-17T07:21:07.386Z,59.36
2022-09-17T07:23:37.505Z,59.57
2022-09-17T07:26:07.741Z,59.66
2022-09-17T07:28:35.923Z,59.30
2022-09-17T07:31:05.855Z,60.08
2022-09-17T07:33:35.973Z,60.23
2022-09-17T07:36:07.753Z,59.96
2022-09-17T07:38:36.025Z,59.71
2022-09-17T07:41:06.529Z,58.82
2022-09-17T07:43:36.231Z,58.47
2022-09-17T07:46:06.529Z,58.24
2022-09-17T07:48:34.971Z,58.14
2022-09-17T07:51:07.921Z,57.66
2022-09-17T07:53:39.200Z,57.83
2022-09-17T07:56:11.838Z,57.92
2022-09-17T07:58:42.822Z,57.16
2022-09-17T08:01:16.040Z,55.06
2022-09-17T08:03:50.825Z,55.21
2022-09-17T08:06:23.236Z,55.08
2022-09-17T08:08:52.096Z,55.75
2022-09-17T08:11:55.095Z,57.02
2022-09-17T08:14:17.524Z,59.46
2022-09-17T08:16:47.848Z,61.34
2022-09-17T08:19:19.637Z,62.05
2022-09-17T08:21:51.551Z,62.42
2022-09-17T08:24:22.526Z,62.20
2022-09-17T08:26:54.108Z,62.15
2022-09-17T08:29:24.027Z,60.35
2022-09-17T08:31:54.237Z,59.91
2022-09-17T08:34:26.028Z,58.53
2022-09-17T08:36:58.651Z,55.57
2022-09-17T08:39:30.005Z,54.96
2022-09-17T08:42:12.806Z,54.94
2022-09-17T08:44:47.014Z,53.92
2022-09-17T08:47:28.618Z,54.05
2022-09-17T08:49:59.794Z,54.54
2022-09-17T08:52:55.094Z,54.26
2022-09-17T08:55:34.035Z,53.99
2022-09-17T08:58:46.737Z,53.63
2022-09-17T09:01:26.556Z,53.10
2022-09-17T09:04:21.698Z,52.68
2022-09-17T09:06:58.404Z,53.40
2022-09-17T09:09:39.459Z,56.28
2022-09-17T09:12:24.544Z,57.39
2022-09-17T09:15:00.009Z,57.55
2022-09-17T09:17:33.681Z,58.07
2022-09-17T09:20:05.991Z,58.36
2022-09-17T09:22:54.868Z,58.60
2022-09-17T09:25:31.585Z,58.62
2022-09-17T09:28:17.477Z,58.18
2022-09-17T09:31:00.731Z,58.89
2022-09-17T09:33:35.759Z,59.54
2022-09-17T09:36:08.543Z,58.09
2022-09-17T09:38:45.958Z,58.69
2022-09-17T09:41:27.477Z,58.99
2022-09-17T09:44:04.449Z,59.49
2022-09-17T09:47:00.004Z,59.99
2022-09-17T09:49:44.692Z,60.38
2022-09-17T09:52:27.312Z,60.78
2022-09-17T09:55:30.455Z,60.98
2022-09-17T09:58:21.160Z,61.00
2022-09-17T10:00:53.031Z,60.97
2022-09-17T10:03:32.535Z,61.56
2022-09-17T10:06:05.554Z,61.36
2022-09-17T10:08:39.090Z,62.19
2022-09-17T10:11:20.972Z,62.73
2022-09-17T10:13:56.936Z,63.87
2022-09-17T10:16:32.441Z,61.33
2022-09-17T10:19:17.303Z,58.17
2022-09-17T10:21:46.685Z,57.76
2022-09-17T10:24:28.355Z,58.64
2022-09-17T10:27:06.343Z,58.95
2022-09-17T10:29:42.709Z,59.29
2022-09-17T10:32:23.658Z,59.59
2022-09-17T10:35:06.385Z,60.08
2022-09-17T10:37:46.502Z,61.20
2022-09-17T10:40:39.566Z,60.10
2022-09-17T10:43:28.262Z,61.58
2022-09-17T10:46:03.464Z,62.34
2022-09-17T10:48:40.256Z,61.03
2022-09-17T10:51:11.893Z,58.17
2022-09-17T10:54:11.049Z,57.66
2022-09-17T10:56:44.455Z,57.42
2022-09-17T10:59:41.808Z,54.74
2022-09-17T11:02:42.295Z,56.31
2022-09-17T11:05:35.429Z,53.45
2022-09-17T11:08:13.204Z,52.30
2022-09-17T11:10:51.381Z,50.36
2022-09-17T11:13:31.006Z,49.70
2022-09-17T11:16:12.559Z,46.81
2022-09-17T11:18:51.852Z,47.31
2022-09-17T11:21:41.360Z,48.21
2022-09-17T11:24:58.241Z,47.10
2022-09-17T11:27:40.990Z,47.27
2022-09-17T11:30:17.884Z,45.74
2022-09-17T11:33:26.103Z,45.68
2022-09-17T11:36:01.989Z,46.40
2022-09-17T11:38:39.192Z,46.71
2022-09-17T11:41:14.651Z,48.72
2022-09-17T11:43:54.336Z,48.07
2022-09-17T11:46:27.106Z,47.73
2022-09-17T11:49:03.170Z,48.04
2022-09-17T11:51:37.489Z,48.98
2022-09-17T11:54:09.630Z,48.79
2022-09-17T11:56:45.845Z,48.65
2022-09-17T11:59:22.279Z,48.58
2022-09-17T12:02:00.226Z,46.62
2022-09-17T12:04:41.056Z,44.30
2022-09-17T12:07:25.721Z,45.11
2022-09-17T12:10:02.356Z,45.27
2022-09-17T12:12:49.829Z,45.76
2022-09-17T12:15:23.705Z,44.05
2022-09-17T12:18:30.478Z,45.70
2022-09-17T12:21:01.114Z,46.13
2022-09-17T12:23:40.143Z,47.46
2022-09-17T12:26:29.916Z,49.36
2022-09-17T12:29:06.978Z,48.14
2022-09-17T12:31:46.261Z,47.24
2022-09-17T12:34:29.203Z,46.54
2022-09-17T12:37:08.481Z,46.70
2022-09-17T12:40:12.074Z,46.80
2022-09-17T12:42:58.373Z,47.14
2022-09-17T12:45:38.718Z,46.46
2022-09-17T12:48:30.293Z,46.44
2022-09-17T12:51:12.112Z,49.11
2022-09-17T12:53:47.618Z,50.16
2022-09-17T12:56:29.607Z,50.87
2022-09-17T12:59:12.051Z,49.70
2022-09-17T13:01:49.897Z,47.72
2022-09-17T13:05:07.306Z,47.23
2022-09-17T13:08:05.150Z,47.62
2022-09-17T13:10:48.922Z,47.23
2022-09-17T13:13:39.450Z,47.85
2022-09-17T13:16:20.079Z,48.13
2022-09-17T13:19:15.497Z,48.04
2022-09-17T13:21:56.462Z,47.90
2022-09-17T13:24:31.070Z,46.38
2022-09-17T13:27:02.971Z,45.47
2022-09-17T13:30:02.326Z,45.99
2022-09-17T13:32:48.546Z,41.82
2022-09-17T13:35:50.843Z,41.76
2022-09-17T13:38:24.397Z,41.24
2022-09-17T13:41:15.919Z,41.71
2022-09-17T13:43:50.750Z,42.21
2022-09-17T13:46:29.151Z,42.49
2022-09-17T13:49:03.733Z,43.04
2022-09-17T13:52:00.751Z,40.43
2022-09-17T13:54:43.644Z,41.05
2022-09-17T13:57:18.313Z,38.68
2022-09-17T13:59:56.276Z,38.32
2022-09-17T14:02:33.088Z,39.27
2022-09-17T14:05:32.478Z,40.45
2022-09-17T14:08:41.007Z,41.40
2022-09-17T14:11:39.499Z,44.57
2022-09-17T14:14:41.752Z,48.65
2022-09-17T14:17:12.959Z,50.03
2022-09-17T14:19:51.937Z,49.23
2022-09-17T14:22:26.948Z,47.85
2022-09-17T14:24:55.912Z,47.23
2022-09-17T14:27:44.508Z,46.97
2022-09-17T14:30:19.341Z,46.23
2022-09-17T14:33:05.580Z,46.47
2022-09-17T14:35:42.762Z,47.67
2022-09-17T14:38:19.889Z,47.76
2022-09-17T14:40:54.865Z,48.39
2022-09-17T14:43:36.828Z,49.17
2022-09-17T14:46:07.861Z,48.17
2022-09-17T14:48:38.603Z,48.07
2022-09-17T14:51:31.153Z,46.68
2022-09-17T14:54:17.384Z,47.01
2022-09-17T14:56:52.578Z,47.99
2022-09-17T14:59:33.201Z,46.72
2022-09-17T15:02:03.658Z,46.10
2022-09-17T15:04:33.441Z,47.20
2022-09-17T15:07:13.690Z,47.72
2022-09-17T15:09:44.708Z,47.72
2022-09-17T15:12:20.992Z,49.34
2022-09-17T15:14:51.139Z,49.17
2022-09-17T15:17:21.600Z,48.68
2022-09-17T15:19:54.932Z,49.09
2022-09-17T15:22:28.234Z,50.71
2022-09-17T15:25:03.310Z,50.76
2022-09-17T15:27:35.972Z,51.15
2022-09-17T15:30:12.375Z,52.41
2022-09-17T15:32:50.919Z,53.35
2022-09-17T15:35:23.472Z,55.02
2022-09-17T15:40:48.465Z,51.84
2022-09-17T15:43:23.299Z,53.26
2022-09-17T15:45:53.582Z,51.83
2022-09-17T15:48:37.554Z,54.03
2022-09-17T15:51:08.080Z,54.52
2022-09-17T15:53:40.250Z,54.46
2022-09-17T15:56:17.647Z,55.48
2022-09-17T15:58:57.228Z,54.53
2022-09-17T16:01:56.987Z,54.49
2022-09-17T16:04:33.103Z,54.47
2022-09-17T16:07:20.187Z,54.26
2022-09-17T16:09:54.392Z,53.67
2022-09-17T16:12:28.202Z,54.33
2022-09-17T16:15:02.357Z,54.79
2022-09-17T16:17:37.636Z,54.01
2022-09-17T16:20:12.270Z,53.27
2022-09-17T16:22:41.339Z,51.93
2022-09-17T16:25:13.342Z,52.72
2022-09-17T16:27:49.426Z,52.22
2022-09-17T16:30:21.552Z,52.49
2022-09-17T16:32:52.469Z,54.34
2022-09-17T16:35:24.035Z,54.97
2022-09-17T16:37:57.844Z,55.57
2022-09-17T16:40:31.172Z,57.56
2022-09-17T16:43:03.641Z,57.95
2022-09-17T16:45:32.953Z,59.05
2022-09-17T16:48:02.726Z,58.94
2022-09-17T16:50:31.408Z,58.97
2022-09-17T16:53:05.534Z,58.51
2022-09-17T16:55:36.180Z,58.54
2022-09-17T16:58:05.474Z,58.98
2022-09-17T17:00:37.454Z,58.94
2022-09-17T17:03:06.886Z,58.70
2022-09-17T17:05:40.160Z,58.51
2022-09-17T17:08:12.986Z,58.71
2022-09-17T17:10:42.801Z,58.20
2022-09-17T17:13:14.001Z,57.98
2022-09-17T17:15:45.456Z,58.50
2022-09-17T17:18:16.248Z,58.10
2022-09-17T17:20:49.043Z,58.14
2022-09-17T17:23:18.925Z,57.37
2022-09-17T17:25:49.618Z,57.21
2022-09-17T17:28:17.928Z,56.39
2022-09-17T17:30:50.663Z,56.06
2022-09-17T17:33:21.575Z,55.95
2022-09-17T17:35:51.857Z,56.16
2022-09-17T17:38:24.166Z,55.77
2022-09-17T17:41:07.789Z,55.77
2022-09-17T17:43:36.666Z,56.22
2022-09-17T17:46:08.119Z,56.74
2022-09-17T17:48:36.859Z,56.78
2022-09-17T17:51:09.890Z,56.41
2022-09-17T17:53:44.047Z,56.08
2022-09-17T17:56:20.139Z,56.55
2022-09-17T17:58:56.278Z,56.81
2022-09-17T18:01:30.452Z,58.54
2022-09-17T18:04:03.321Z,59.05
2022-09-17T18:06:35.450Z,59.45
2022-09-17T18:09:08.495Z,59.68
2022-09-17T18:11:41.136Z,59.89
2022-09-17T18:14:14.386Z,60.18
2022-09-17T18:16:45.674Z,60.00
2022-09-17T18:19:16.854Z,60.33
2022-09-17T18:21:50.258Z,60.40
2022-09-17T18:24:19.894Z,60.40
2022-09-17T18:26:52.513Z,60.03
2022-09-17T18:29:24.881Z,60.02
2022-09-17T18:31:56.866Z,60.03
2022-09-17T18:34:26.501Z,59.69
2022-09-17T18:36:58.972Z,59.98
2022-09-17T18:39:57.860Z,59.67
2022-09-17T18:42:20.865Z,59.97
2022-09-17T18:44:50.294Z,60.38
2022-09-17T18:47:19.082Z,60.95
2022-09-17T18:49:50.161Z,60.80
2022-09-17T18:52:19.077Z,60.74
2022-09-17T18:54:51.014Z,60.20
2022-09-17T18:57:23.822Z,59.91
2022-09-17T18:59:52.128Z,59.94
2022-09-17T19:02:20.227Z,58.95
2022-09-17T19:04:48.255Z,58.78
2022-09-17T19:07:16.484Z,58.90
2022-09-17T19:09:45.038Z,58.00
2022-09-17T19:12:13.144Z,57.78
2022-09-17T19:14:42.540Z,57.57
2022-09-17T19:17:10.593Z,57.47
2022-09-17T19:19:38.590Z,56.88
2022-09-17T19:22:08.177Z,56.81
2022-09-17T19:24:36.665Z,56.95
2022-09-17T19:27:05.355Z,57.20
2022-09-17T19:29:34.514Z,56.99
2022-09-17T19:32:05.125Z,57.12
2022-09-17T19:34:33.696Z,55.45
2022-09-17T19:37:02.479Z,55.53
2022-09-17T19:39:30.407Z,55.72
2022-09-17T19:41:58.767Z,55.71
2022-09-17T19:44:27.065Z,55.43
2022-09-17T19:46:55.477Z,55.73
2022-09-17T19:49:25.061Z,55.98
2022-09-17T19:51:52.976Z,56.60
2022-09-17T19:54:21.057Z,57.14
2022-09-17T19:56:49.669Z,57.27
2022-09-17T19:59:18.062Z,57.69
2022-09-17T20:01:49.630Z,58.18
2022-09-17T20:04:20.817Z,58.82
2022-09-17T20:06:53.370Z,58.91
2022-09-17T20:09:24.680Z,59.05
2022-09-17T20:11:55.494Z,59.27
2022-09-17T20:14:23.888Z,60.06
2022-09-17T20:16:51.894Z,61.30
2022-09-17T20:19:21.632Z,61.78
2022-09-17T20:21:54.075Z,61.99
2022-09-17T20:24:24.660Z,62.64
2022-09-17T20:26:54.709Z,62.81
2022-09-17T20:29:24.857Z,63.52
2022-09-17T20:31:54.547Z,63.54
2022-09-17T20:34:23.725Z,63.36
2022-09-17T20:37:06.709Z,63.17
2022-09-17T20:39:42.006Z,62.72
2022-09-17T20:42:11.796Z,63.02
2022-09-17T20:44:40.832Z,62.96
2022-09-17T20:47:10.712Z,62.96
2022-09-17T20:49:40.677Z,62.78
2022-09-17T20:52:10.351Z,63.34
2022-09-17T20:54:38.831Z,63.41
2022-09-17T20:57:06.823Z,63.43
2022-09-17T20:59:51.209Z,63.70
2022-09-17T21:02:21.055Z,62.49
2022-09-17T21:04:51.182Z,62.85
2022-09-17T21:07:20.653Z,62.57
2022-09-17T21:09:48.954Z,61.78
2022-09-17T21:12:16.975Z,61.85
2022-09-17T21:14:44.969Z,60.96
2022-09-17T21:17:13.171Z,60.51
2022-09-17T21:19:41.123Z,60.06
2022-09-17T21:22:09.094Z,59.72
2022-09-17T21:24:38.706Z,58.65
2022-09-17T21:27:07.342Z,58.25
2022-09-17T21:29:35.709Z,57.97
2022-09-17T21:32:04.346Z,57.44
2022-09-17T21:34:33.047Z,56.99
2022-09-17T21:37:04.248Z,55.99
2022-09-17T21:39:34.940Z,56.09
2022-09-17T21:42:05.532Z,55.56
2022-09-17T21:44:34.194Z,55.53
2022-09-17T21:47:02.173Z,55.39
2022-09-17T21:49:30.526Z,54.94
2022-09-17T21:51:58.467Z,54.61
2022-09-17T21:54:29.041Z,54.57
2022-09-17T21:57:01.044Z,54.46
2022-09-17T21:59:31.377Z,54.24
2022-09-17T22:02:00.385Z,53.90
2022-09-17T22:04:29.825Z,53.43
2022-09-17T22:06:59.202Z,52.95
2022-09-17T22:09:30.752Z,52.79
2022-09-17T22:12:02.524Z,52.77
2022-09-17T22:14:34.987Z,52.34
2022-09-17T22:17:05.236Z,52.22
2022-09-17T22:19:36.841Z,52.00
2022-09-17T22:22:05.859Z,52.39
2022-09-17T22:24:39.491Z,52.53
2022-09-17T22:27:07.972Z,52.74
2022-09-17T22:29:39.833Z,53.16
2022-09-17T22:32:08.599Z,53.14
2022-09-17T22:34:37.040Z,53.64
2022-09-17T22:37:06.417Z,54.29
2022-09-17T22:39:35.840Z,54.45
2022-09-17T22:42:06.004Z,54.69
2022-09-17T22:44:36.950Z,54.48
2022-09-17T22:47:12.969Z,54.38
2022-09-17T22:49:46.997Z,53.67
2022-09-17T22:52:15.675Z,53.62
2022-09-17T22:54:44.999Z,53.88
2022-09-17T22:57:15.765Z,54.07
2022-09-17T22:59:44.674Z,53.94
2022-09-17T23:02:15.213Z,54.40
2022-09-17T23:04:44.476Z,54.72
2022-09-17T23:07:16.301Z,54.96
2022-09-17T23:09:45.691Z,55.20
2022-09-17T23:12:14.628Z,55.99
2022-09-17T23:14:47.152Z,56.11
2022-09-17T23:17:17.488Z,56.16
2022-09-17T23:19:47.311Z,58.40
2022-09-17T23:22:15.948Z,60.97
2022-09-17T23:24:45.072Z,61.21
2022-09-17T23:27:14.791Z,61.88
2022-09-17T23:29:43.418Z,61.76
2022-09-17T23:32:11.938Z,61.77
2022-09-17T23:34:42.898Z,61.39
2022-09-17T23:37:12.456Z,61.88
2022-09-17T23:39:42.524Z,61.88
2022-09-17T23:42:11.871Z,61.75
2022-09-17T23:44:40.920Z,61.68
2022-09-17T23:47:09.940Z,62.34
2022-09-17T23:49:38.709Z,62.59
2022-09-17T23:52:09.665Z,62.30
2022-09-17T23:54:39.356Z,62.88
2022-09-17T23:57:08.468Z,62.76
2022-09-17T23:59:37.691Z,63.32
